createdAt,value
2023-05-14T00:15:48.038Z,0.00
2023-05-14T03:51:45.636Z,5.62
2023-05-14T03:52:45.630Z,5.62
2023-05-14T03:53:45.592Z,5.62
2023-05-14T03:54:45.618Z,5.62
2023-05-14T03:55:45.579Z,5.62
2023-05-14T03:56:45.664Z,5.62
2023-05-14T03:57:45.556Z,5.62
2023-05-14T03:58:45.589Z,5.62
2023-05-14T03:59:45.699Z,5.62
2023-05-14T04:00:45.538Z,5.62
2023-05-14T04:01:45.531Z,11.25
2023-05-14T04:02:45.567Z,11.25
2023-05-14T04:03:45.715Z,11.25
2023-05-14T04:04:45.509Z,11.25
2023-05-14T04:05:45.502Z,11.25
2023-05-14T04:06:45.515Z,11.25
2023-05-14T04:07:45.460Z,11.25
2023-05-14T04:08:45.478Z,16.87
2023-05-14T04:09:45.506Z,16.87
2023-05-14T04:10:45.508Z,16.87
2023-05-14T04:11:45.401Z,16.87
2023-05-14T04:12:45.476Z,16.87
2023-05-14T04:13:45.417Z,16.87
2023-05-14T04:14:45.400Z,22.50
2023-05-14T04:15:45.378Z,22.50
2023-05-14T04:16:45.481Z,22.50
2023-05-14T04:17:45.370Z,22.50
2023-05-14T04:18:45.394Z,22.50
2023-05-14T04:19:45.344Z,28.12
2023-05-14T04:20:45.394Z,28.12
2023-05-14T04:21:45.305Z,28.12
2023-05-14T04:22:45.373Z,28.12
2023-05-14T04:23:45.375Z,28.12
2023-05-14T04:24:45.300Z,33.75
2023-05-14T04:25:45.315Z,33.75
2023-05-14T04:26:45.272Z,33.75
2023-05-14T04:27:45.261Z,33.75
2023-05-14T04:28:45.263Z,33.75
2023-05-14T04:29:45.264Z,39.37
2023-05-14T04:30:45.255Z,39.37
2023-05-14T04:31:45.291Z,39.37
2023-05-14T04:32:45.272Z,39.37
2023-05-14T04:33:45.208Z,39.37
2023-05-14T04:34:45.205Z,39.37
2023-05-14T04:35:45.149Z,45.00
2023-05-14T04:36:45.146Z,45.00
2023-05-14T04:37:45.237Z,45.00
2023-05-14T04:38:45.135Z,50.62
2023-05-14T04:39:45.125Z,50.62
2023-05-14T04:40:45.146Z,50.62
2023-05-14T04:41:45.121Z,50.62
2023-05-14T04:42:45.079Z,50.62
2023-05-14T04:43:45.068Z,50.62
2023-05-14T04:44:45.070Z,56.25
2023-05-14T04:45:45.157Z,56.25
2023-05-14T04:46:45.069Z,56.25
2023-05-14T04:47:45.116Z,56.25
2023-05-14T04:48:45.244Z,61.87
2023-05-14T04:49:45.066Z,61.87
2023-05-14T04:50:45.201Z,61.87
2023-05-14T04:51:45.110Z,61.87
2023-05-14T04:52:45.034Z,61.87
2023-05-14T04:53:45.018Z,67.50
2023-05-14T04:54:45.169Z,67.50
2023-05-14T04:55:44.969Z,67.50
2023-05-14T04:56:44.973Z,67.50
2023-05-14T04:57:44.929Z,67.50
2023-05-14T04:58:44.944Z,73.12
2023-05-14T04:59:44.912Z,73.12
2023-05-14T05:00:44.920Z,73.12
2023-05-14T05:01:45.256Z,73.12
2023-05-14T05:02:44.907Z,73.12
2023-05-14T05:03:45.014Z,78.75
2023-05-14T05:04:44.854Z,78.75
2023-05-14T05:05:45.046Z,78.75
2023-05-14T05:06:44.844Z,78.75
2023-05-14T05:07:44.901Z,78.75
2023-05-14T05:08:44.838Z,78.75
2023-05-14T05:09:44.878Z,78.75
2023-05-14T05:10:44.807Z,78.75
2023-05-14T05:11:44.777Z,78.75
2023-05-14T05:12:44.776Z,78.75
2023-05-14T05:13:44.770Z,78.75
2023-05-14T05:14:44.965Z,84.37
2023-05-14T05:15:44.767Z,84.37
2023-05-14T05:16:44.773Z,84.37
2023-05-14T05:17:44.766Z,84.37
2023-05-14T05:18:44.776Z,84.37
2023-05-14T05:19:44.822Z,90.00
2023-05-14T05:20:44.721Z,90.00
2023-05-14T05:21:44.741Z,90.00
2023-05-14T05:22:44.758Z,95.62
2023-05-14T05:23:44.698Z,95.62
2023-05-14T05:24:44.756Z,95.62
2023-05-14T05:25:44.633Z,101.25
2023-05-14T05:26:44.671Z,106.87
2023-05-14T05:27:44.638Z,101.25
2023-05-14T05:28:44.594Z,106.87
2023-05-14T05:29:44.666Z,106.87
2023-05-14T05:30:44.596Z,106.87
2023-05-14T05:31:44.722Z,112.50
2023-05-14T05:32:44.593Z,112.50
2023-05-14T05:33:44.774Z,112.50
2023-05-14T05:34:44.539Z,112.50
2023-05-14T05:35:44.612Z,118.12
2023-05-14T05:36:44.508Z,118.12
2023-05-14T05:37:44.508Z,118.12
2023-05-14T05:38:44.726Z,118.12
2023-05-14T05:39:44.481Z,123.75
2023-05-14T05:40:44.494Z,123.75
2023-05-14T05:41:44.462Z,123.75
2023-05-14T05:42:44.454Z,123.75
2023-05-14T05:43:44.463Z,129.37
2023-05-14T05:44:44.435Z,129.37
2023-05-14T05:45:44.427Z,129.37
2023-05-14T05:46:44.467Z,129.37
2023-05-14T05:47:44.434Z,129.37
2023-05-14T05:48:44.375Z,135.00
2023-05-14T05:49:44.397Z,135.00
2023-05-14T05:50:44.388Z,135.00
2023-05-14T05:51:44.372Z,135.00
2023-05-14T05:52:44.444Z,135.00
2023-05-14T05:53:44.365Z,140.62
2023-05-14T05:54:44.298Z,140.62
2023-05-14T05:55:44.299Z,140.62
2023-05-14T05:56:44.272Z,140.62
2023-05-14T05:57:44.293Z,140.62
2023-05-14T05:58:44.289Z,140.62
2023-05-14T05:59:44.256Z,140.62
2023-05-14T06:00:44.230Z,140.62
2023-05-14T06:01:44.307Z,140.62
2023-05-14T06:02:44.506Z,140.62
2023-05-14T06:03:45.800Z,140.62
2023-05-14T06:04:44.209Z,146.25
2023-05-14T06:05:44.316Z,146.25
2023-05-14T06:06:44.248Z,146.25
2023-05-14T06:07:44.230Z,146.25
2023-05-14T06:08:44.169Z,146.25
2023-05-14T06:09:44.145Z,146.25
2023-05-14T06:10:45.246Z,151.87
2023-05-14T06:11:44.149Z,151.87
2023-05-14T06:12:44.136Z,151.87
2023-05-14T06:13:44.123Z,151.87
2023-05-14T06:14:44.122Z,151.87
2023-05-14T06:15:44.115Z,151.87
2023-05-14T06:16:44.165Z,157.50
2023-05-14T06:17:44.140Z,157.50
2023-05-14T06:18:44.131Z,157.50
2023-05-14T06:19:44.268Z,157.50
2023-05-14T06:20:44.045Z,157.50
2023-05-14T06:21:44.032Z,157.50
2023-05-14T06:22:44.006Z,157.50
2023-05-14T06:23:44.116Z,163.12
2023-05-14T06:24:44.004Z,163.12
2023-05-14T06:25:44.020Z,163.12
2023-05-14T06:26:43.974Z,163.12
2023-05-14T06:27:43.974Z,163.12
2023-05-14T06:28:43.960Z,163.12
2023-05-14T06:29:44.163Z,163.12
2023-05-14T06:30:43.949Z,168.75
2023-05-14T06:31:44.005Z,168.75
2023-05-14T06:32:43.918Z,168.75
2023-05-14T06:33:43.911Z,168.75
2023-05-14T06:34:43.890Z,168.75
2023-05-14T06:35:43.912Z,168.75
2023-05-14T06:36:43.857Z,168.75
2023-05-14T06:37:43.861Z,174.37
2023-05-14T06:38:43.841Z,174.37
2023-05-14T06:39:43.862Z,174.37
2023-05-14T06:40:43.830Z,174.37
2023-05-14T06:41:43.823Z,174.37
2023-05-14T06:42:43.789Z,174.37
2023-05-14T06:43:43.820Z,174.37
2023-05-14T06:44:43.776Z,180.00
2023-05-14T06:45:43.787Z,180.00
2023-05-14T06:46:43.739Z,180.00
2023-05-14T06:47:43.801Z,180.00
2023-05-14T06:48:43.751Z,180.00
2023-05-14T06:49:43.762Z,180.00
2023-05-14T06:50:43.715Z,185.62
2023-05-14T06:51:43.707Z,185.62
2023-05-14T06:52:43.685Z,185.62
2023-05-14T06:53:43.693Z,185.62
2023-05-14T06:54:43.650Z,185.62
2023-05-14T06:55:43.716Z,185.62
2023-05-14T06:56:43.652Z,185.62
2023-05-14T06:57:43.655Z,191.25
2023-05-14T06:58:43.639Z,191.25
2023-05-14T06:59:43.626Z,191.25
2023-05-14T07:00:43.624Z,191.25
2023-05-14T07:01:43.621Z,191.25
2023-05-14T07:02:43.584Z,191.25
2023-05-14T07:03:43.596Z,191.25
2023-05-14T07:04:43.653Z,191.25
2023-05-14T07:05:43.556Z,191.25
2023-05-14T07:06:43.525Z,191.25
2023-05-14T07:07:43.543Z,191.25
2023-05-14T07:08:43.507Z,191.25
2023-05-14T07:09:43.502Z,191.25
2023-05-14T07:10:43.471Z,191.25
2023-05-14T07:11:43.511Z,191.25
2023-05-14T07:12:43.490Z,196.87
2023-05-14T07:13:43.493Z,196.87
2023-05-14T07:14:43.445Z,196.87
2023-05-14T07:15:43.469Z,196.87
2023-05-14T07:16:43.448Z,196.87
2023-05-14T07:17:43.421Z,196.87
2023-05-14T07:18:43.495Z,196.87
2023-05-14T07:19:43.389Z,196.87
2023-05-14T07:20:43.379Z,196.87
2023-05-14T07:21:43.364Z,196.87
2023-05-14T07:22:43.383Z,196.87
2023-05-14T07:23:43.348Z,196.87
2023-05-14T07:24:43.353Z,196.87
2023-05-14T07:25:43.328Z,196.87
2023-05-14T07:26:43.317Z,196.87
2023-05-14T07:27:43.352Z,196.87
2023-05-14T07:28:43.312Z,196.87
2023-05-14T07:29:43.319Z,196.87
2023-05-14T07:30:43.296Z,202.50
2023-05-14T07:31:43.280Z,196.87
2023-05-14T07:32:43.275Z,202.50
2023-05-14T07:33:43.257Z,202.50
2023-05-14T07:34:43.239Z,202.50
2023-05-14T07:35:43.227Z,202.50
2023-05-14T07:36:43.198Z,202.50
2023-05-14T07:37:43.230Z,202.50
2023-05-14T07:38:43.180Z,202.50
2023-05-14T07:39:43.234Z,202.50
2023-05-14T07:40:43.161Z,202.50
2023-05-14T07:41:43.196Z,202.50
2023-05-14T07:42:43.150Z,202.50
2023-05-14T07:43:43.234Z,202.50
2023-05-14T07:44:43.130Z,202.50
2023-05-14T07:45:43.127Z,202.50
2023-05-14T07:46:43.106Z,202.50
2023-05-14T07:47:43.196Z,202.50
2023-05-14T07:48:43.115Z,208.12
2023-05-14T07:49:43.096Z,208.12
2023-05-14T07:50:43.092Z,208.12
2023-05-14T07:51:43.046Z,208.12
2023-05-14T07:52:43.026Z,208.12
2023-05-14T07:53:43.025Z,208.12
2023-05-14T07:54:43.036Z,208.12
2023-05-14T07:55:43.019Z,208.12
2023-05-14T07:56:43.008Z,208.12
2023-05-14T07:57:42.972Z,208.12
2023-05-14T07:58:42.995Z,208.12
2023-05-14T07:59:43.013Z,208.12
2023-05-14T08:00:42.983Z,208.12
2023-05-14T08:01:43.044Z,208.12
2023-05-14T08:02:43.134Z,208.12
2023-05-14T08:03:43.045Z,213.75
2023-05-14T08:04:42.893Z,213.75
2023-05-14T08:05:42.953Z,213.75
2023-05-14T08:06:42.880Z,213.75
2023-05-14T08:07:42.877Z,213.75
2023-05-14T08:08:42.858Z,213.75
2023-05-14T08:09:42.844Z,213.75
2023-05-14T08:10:42.874Z,213.75
2023-05-14T08:11:42.851Z,213.75
2023-05-14T08:12:42.880Z,213.75
2023-05-14T08:13:42.837Z,219.37
2023-05-14T08:14:42.793Z,219.37
2023-05-14T08:15:42.859Z,219.37
2023-05-14T08:16:42.827Z,219.37
2023-05-14T08:17:42.902Z,219.37
2023-05-14T08:18:42.774Z,225.00
2023-05-14T08:19:42.738Z,225.00
2023-05-14T08:20:42.742Z,225.00
2023-05-14T08:21:42.748Z,225.00
2023-05-14T08:22:42.715Z,230.62
2023-05-14T08:23:42.750Z,230.62
2023-05-14T08:24:42.706Z,230.62
2023-05-14T08:25:42.698Z,230.62
2023-05-14T08:26:42.691Z,236.25
2023-05-14T08:27:42.727Z,236.25
2023-05-14T08:28:42.667Z,236.25
2023-05-14T08:29:42.672Z,241.87
2023-05-14T08:30:42.668Z,241.87
2023-05-14T08:31:42.644Z,247.50
2023-05-14T08:32:42.642Z,247.50
2023-05-14T08:33:42.625Z,253.12
2023-05-14T08:34:44.083Z,253.12
2023-05-14T08:35:42.588Z,258.75
2023-05-14T08:36:42.583Z,264.37
2023-05-14T08:37:42.601Z,270.00
2023-05-14T08:38:42.766Z,275.62
2023-05-14T08:39:42.537Z,275.62
2023-05-14T08:40:42.544Z,281.25
2023-05-14T08:41:42.536Z,286.87
2023-05-14T08:42:42.518Z,281.25
2023-05-14T08:43:42.502Z,281.25
2023-05-14T08:44:42.672Z,286.87
2023-05-14T08:45:42.473Z,264.37
2023-05-14T08:46:42.473Z,264.37
2023-05-14T08:47:42.514Z,270.00
2023-05-14T08:48:42.485Z,286.87
2023-05-14T08:49:42.437Z,286.87
2023-05-14T08:50:42.427Z,292.50
2023-05-14T08:51:42.426Z,241.87
2023-05-14T08:52:42.415Z,281.25
2023-05-14T08:53:42.427Z,270.00
2023-05-14T08:54:42.366Z,258.75
2023-05-14T08:55:42.389Z,270.00
2023-05-14T08:56:42.344Z,270.00
2023-05-14T08:57:42.366Z,275.62
2023-05-14T08:58:42.332Z,281.25
2023-05-14T08:59:42.328Z,292.50
2023-05-14T09:00:42.303Z,286.87
2023-05-14T09:01:42.388Z,303.75
2023-05-14T09:02:42.340Z,309.37
2023-05-14T09:03:42.354Z,309.37
2023-05-14T09:04:42.296Z,309.37
2023-05-14T09:05:42.288Z,303.75
2023-05-14T09:06:42.265Z,303.75
2023-05-14T09:07:42.278Z,309.37
2023-05-14T09:08:42.255Z,315.00
2023-05-14T09:09:42.234Z,303.75
2023-05-14T09:10:42.203Z,309.37
2023-05-14T09:11:42.226Z,309.37
2023-05-14T09:12:42.208Z,309.37
2023-05-14T09:13:42.207Z,309.37
2023-05-14T09:14:42.161Z,309.37
2023-05-14T09:15:42.382Z,315.00
2023-05-14T09:16:42.222Z,303.75
2023-05-14T09:17:42.211Z,309.37
2023-05-14T09:18:42.179Z,309.37
2023-05-14T09:19:42.129Z,309.37
2023-05-14T09:20:42.109Z,309.37
2023-05-14T09:21:42.094Z,315.00
2023-05-14T09:22:42.080Z,326.25
2023-05-14T09:23:42.062Z,309.37
2023-05-14T09:24:42.071Z,303.75
2023-05-14T09:25:42.040Z,315.00
2023-05-14T09:26:42.033Z,315.00
2023-05-14T09:27:42.032Z,320.62
2023-05-14T09:28:42.000Z,281.25
2023-05-14T09:29:42.047Z,281.25
2023-05-14T09:30:42.033Z,303.75
2023-05-14T09:31:42.040Z,326.25
2023-05-14T09:32:41.994Z,343.12
2023-05-14T09:33:42.176Z,348.75
2023-05-14T09:34:41.954Z,354.37
2023-05-14T09:35:41.979Z,348.75
2023-05-14T09:36:41.947Z,343.12
2023-05-14T09:37:41.944Z,343.12
2023-05-14T09:38:41.899Z,331.87
2023-05-14T09:39:41.889Z,337.50
2023-05-14T09:40:41.890Z,331.87
2023-05-14T09:41:41.906Z,337.50
2023-05-14T09:42:41.871Z,348.75
2023-05-14T09:43:41.849Z,348.75
2023-05-14T09:44:41.840Z,360.00
2023-05-14T09:45:41.841Z,365.62
2023-05-14T09:46:42.049Z,365.62
2023-05-14T09:47:41.856Z,360.00
2023-05-14T09:48:41.876Z,360.00
2023-05-14T09:49:41.795Z,315.00
2023-05-14T09:50:41.802Z,371.25
2023-05-14T09:51:41.800Z,343.12
2023-05-14T09:52:41.774Z,326.25
2023-05-14T09:53:41.751Z,348.75
2023-05-14T09:54:41.793Z,315.00
2023-05-14T09:55:41.755Z,281.25
2023-05-14T09:56:41.716Z,326.25
2023-05-14T09:57:41.717Z,303.75
2023-05-14T09:58:41.737Z,354.37
2023-05-14T09:59:41.713Z,326.25
2023-05-14T10:00:41.703Z,264.37
2023-05-14T10:01:41.743Z,303.75
2023-05-14T10:02:41.755Z,348.75
2023-05-14T10:03:41.661Z,376.87
2023-05-14T10:04:41.662Z,376.87
2023-05-14T10:05:41.625Z,388.12
2023-05-14T10:06:41.628Z,365.62
2023-05-14T10:07:41.640Z,315.00
2023-05-14T10:08:41.627Z,281.25
2023-05-14T10:09:41.610Z,298.12
2023-05-14T10:10:41.596Z,286.87
2023-05-14T10:11:41.577Z,360.00
2023-05-14T10:12:41.565Z,309.37
2023-05-14T10:13:41.553Z,286.87
2023-05-14T10:14:41.564Z,241.87
2023-05-14T10:15:41.521Z,360.00
2023-05-14T10:16:41.540Z,388.12
2023-05-14T10:17:41.576Z,320.62
2023-05-14T10:18:41.722Z,320.62
2023-05-14T10:19:41.481Z,331.87
2023-05-14T10:20:41.537Z,365.62
2023-05-14T10:21:41.451Z,376.87
2023-05-14T10:22:41.471Z,376.87
2023-05-14T10:23:41.455Z,371.25
2023-05-14T10:24:41.437Z,371.25
2023-05-14T10:25:41.447Z,371.25
2023-05-14T10:26:41.421Z,365.62
2023-05-14T10:27:41.420Z,365.62
2023-05-14T10:28:41.386Z,371.25
2023-05-14T10:29:41.372Z,376.87
2023-05-14T10:30:41.360Z,348.75
2023-05-14T10:31:41.397Z,371.25
2023-05-14T10:32:41.468Z,365.62
2023-05-14T10:33:41.326Z,337.50
2023-05-14T10:34:41.386Z,292.50
2023-05-14T10:35:41.346Z,348.75
2023-05-14T10:36:41.326Z,376.87
2023-05-14T10:37:41.279Z,382.50
2023-05-14T10:38:41.305Z,382.50
2023-05-14T10:39:41.521Z,382.50
2023-05-14T10:40:41.278Z,376.87
2023-05-14T10:41:41.255Z,371.25
2023-05-14T10:42:41.271Z,348.75
2023-05-14T10:43:41.213Z,360.00
2023-05-14T10:44:41.213Z,354.37
2023-05-14T10:45:41.194Z,371.25
2023-05-14T10:46:41.259Z,371.25
2023-05-14T10:47:41.201Z,365.62
2023-05-14T10:48:41.213Z,371.25
2023-05-14T10:49:43.922Z,382.50
2023-05-14T10:50:41.168Z,393.75
2023-05-14T10:51:41.249Z,399.37
2023-05-14T10:52:41.131Z,405.00
2023-05-14T10:53:41.135Z,421.87
2023-05-14T10:54:41.113Z,438.75
2023-05-14T10:55:41.114Z,438.75
2023-05-14T10:56:41.098Z,444.37
2023-05-14T10:57:41.094Z,444.37
2023-05-14T10:58:41.069Z,438.75
2023-05-14T10:59:41.053Z,438.75
2023-05-14T11:00:41.067Z,427.50
2023-05-14T11:01:41.082Z,416.25
2023-05-14T11:02:41.057Z,410.62
2023-05-14T11:03:41.096Z,416.25
2023-05-14T11:04:41.021Z,405.00
2023-05-14T11:05:40.984Z,410.62
2023-05-14T11:06:41.001Z,405.00
2023-05-14T11:07:40.973Z,450.00
2023-05-14T11:08:41.013Z,444.37
2023-05-14T11:09:40.973Z,433.12
2023-05-14T11:10:40.972Z,438.75
2023-05-14T11:11:40.979Z,382.50
2023-05-14T11:12:40.922Z,450.00
2023-05-14T11:13:40.921Z,427.50
2023-05-14T11:14:40.931Z,427.50
2023-05-14T11:15:40.884Z,438.75
2023-05-14T11:16:40.938Z,371.25
2023-05-14T11:17:40.975Z,421.87
2023-05-14T11:18:41.111Z,455.62
2023-05-14T11:19:40.866Z,438.75
2023-05-14T11:20:40.873Z,444.37
2023-05-14T11:21:40.869Z,421.87
2023-05-14T11:22:40.851Z,461.25
2023-05-14T11:23:40.863Z,455.62
2023-05-14T11:24:40.808Z,421.87
2023-05-14T11:25:40.813Z,427.50
2023-05-14T11:26:40.851Z,427.50
2023-05-14T11:27:40.793Z,416.25
2023-05-14T11:28:40.764Z,410.62
2023-05-14T11:29:40.737Z,410.62
2023-05-14T11:30:40.740Z,438.75
2023-05-14T11:31:40.750Z,433.12
2023-05-14T11:32:40.778Z,405.00
2023-05-14T11:33:40.735Z,461.25
2023-05-14T11:34:40.696Z,483.75
2023-05-14T11:35:40.712Z,466.87
2023-05-14T11:36:40.729Z,450.00
2023-05-14T11:37:40.675Z,416.25
2023-05-14T11:38:40.660Z,444.37
2023-05-14T11:39:40.653Z,455.62
2023-05-14T11:40:40.652Z,410.62
2023-05-14T11:41:40.831Z,556.87
2023-05-14T11:42:40.615Z,410.62
2023-05-14T11:43:40.615Z,461.25
2023-05-14T11:44:40.613Z,438.75
2023-05-14T11:45:40.642Z,455.62
2023-05-14T11:46:40.683Z,416.25
2023-05-14T11:47:40.599Z,416.25
2023-05-14T11:48:40.571Z,421.87
2023-05-14T11:49:40.564Z,421.87
2023-05-14T11:50:40.563Z,483.75
2023-05-14T11:51:40.544Z,472.50
2023-05-14T11:52:40.540Z,483.75
2023-05-14T11:53:40.525Z,489.37
2023-05-14T11:54:40.720Z,663.75
2023-05-14T11:55:40.500Z,736.87
2023-05-14T11:56:40.498Z,601.87
2023-05-14T11:57:40.492Z,472.50
2023-05-14T11:58:40.461Z,433.12
2023-05-14T11:59:40.709Z,416.25
2023-05-14T12:00:40.464Z,410.62
2023-05-14T12:01:40.413Z,410.62
2023-05-14T12:02:40.545Z,1434.37
2023-05-14T12:03:40.571Z,416.25
2023-05-14T12:04:40.469Z,416.25
2023-05-14T12:05:40.417Z,427.50
2023-05-14T12:06:40.410Z,433.12
2023-05-14T12:07:40.348Z,450.00
2023-05-14T12:08:40.364Z,421.87
2023-05-14T12:09:40.655Z,438.75
2023-05-14T12:10:40.357Z,461.25
2023-05-14T12:11:40.335Z,438.75
2023-05-14T12:12:40.289Z,455.62
2023-05-14T12:13:40.288Z,472.50
2023-05-14T12:14:40.300Z,1631.25
2023-05-14T12:15:40.323Z,466.87
2023-05-14T12:16:40.292Z,472.50
2023-05-14T12:17:40.312Z,489.37
2023-05-14T12:18:40.337Z,534.37
2023-05-14T12:19:40.218Z,545.62
2023-05-14T12:20:40.256Z,483.75
2023-05-14T12:21:40.237Z,1687.50
2023-05-14T12:22:40.209Z,1940.62
2023-05-14T12:23:40.178Z,2688.75
2023-05-14T12:24:40.231Z,2919.37
2023-05-14T12:25:40.164Z,2840.62
2023-05-14T12:26:40.164Z,2806.87
2023-05-14T12:27:40.172Z,2941.87
2023-05-14T12:28:40.143Z,2958.75
2023-05-14T12:29:40.132Z,2908.12
2023-05-14T12:30:40.137Z,2694.37
2023-05-14T12:31:40.186Z,2593.12
2023-05-14T12:32:40.226Z,2649.37
2023-05-14T12:33:40.077Z,2722.50
2023-05-14T12:34:40.098Z,2857.50
2023-05-14T12:35:40.065Z,3071.25
2023-05-14T12:36:40.095Z,1378.12
2023-05-14T12:37:40.165Z,1918.12
2023-05-14T12:38:40.078Z,579.37
2023-05-14T12:39:40.034Z,3020.62
2023-05-14T12:40:40.028Z,3060.00
2023-05-14T12:41:40.024Z,545.62
2023-05-14T12:42:40.039Z,3116.25
2023-05-14T12:43:40.011Z,2925.00
2023-05-14T12:44:40.011Z,3088.12
2023-05-14T12:45:40.000Z,3189.37
2023-05-14T12:46:40.041Z,3110.62
2023-05-14T12:47:40.031Z,2896.87
2023-05-14T12:48:39.989Z,2891.25
2023-05-14T12:49:39.934Z,2930.62
2023-05-14T12:50:39.935Z,2992.50
2023-05-14T12:51:39.924Z,2739.37
2023-05-14T12:52:40.253Z,2491.87
2023-05-14T12:53:39.894Z,2317.50
2023-05-14T12:54:41.635Z,2475.00
2023-05-14T12:55:39.862Z,2795.62
2023-05-14T12:56:39.906Z,3127.50
2023-05-14T12:57:39.891Z,3088.12
2023-05-14T12:58:39.852Z,3110.62
2023-05-14T12:59:39.861Z,3031.87
2023-05-14T13:00:40.095Z,3054.37
2023-05-14T13:01:39.946Z,3127.50
2023-05-14T13:02:42.852Z,3116.25
2023-05-14T13:03:39.814Z,3099.37
2023-05-14T13:04:39.890Z,3088.12
2023-05-14T13:05:39.780Z,1940.62
2023-05-14T13:06:39.790Z,3026.25
2023-05-14T13:07:39.740Z,2981.25
2023-05-14T13:08:41.483Z,2750.62
2023-05-14T13:09:39.757Z,1147.50
2023-05-14T13:10:39.756Z,613.12
2023-05-14T13:11:39.699Z,562.50
2023-05-14T13:12:39.724Z,573.75
2023-05-14T13:13:39.719Z,573.75
2023-05-14T13:14:39.707Z,601.87
2023-05-14T13:15:39.893Z,613.12
2023-05-14T13:16:39.750Z,646.87
2023-05-14T13:17:39.691Z,652.50
2023-05-14T13:18:39.691Z,658.12
2023-05-14T13:19:39.677Z,697.50
2023-05-14T13:20:41.225Z,731.25
2023-05-14T13:21:39.614Z,781.87
2023-05-14T13:22:39.666Z,748.12
2023-05-14T13:23:39.597Z,686.25
2023-05-14T13:24:39.612Z,748.12
2023-05-14T13:25:39.607Z,798.75
2023-05-14T13:26:39.614Z,748.12
2023-05-14T13:27:39.589Z,663.75
2023-05-14T13:28:39.748Z,511.87
2023-05-14T13:29:39.520Z,472.50
2023-05-14T13:30:39.561Z,630.00
2023-05-14T13:31:39.537Z,478.12
2023-05-14T13:32:42.101Z,517.50
2023-05-14T13:33:39.498Z,556.87
2023-05-14T13:34:39.482Z,601.87
2023-05-14T13:35:39.469Z,1558.12
2023-05-14T13:36:39.511Z,2019.37
2023-05-14T13:37:39.462Z,1636.87
2023-05-14T13:38:39.480Z,1552.50
2023-05-14T13:39:41.089Z,1254.37
2023-05-14T13:40:39.434Z,472.50
2023-05-14T13:41:39.427Z,421.87
2023-05-14T13:42:39.430Z,365.62
2023-05-14T13:43:39.386Z,348.75
2023-05-14T13:44:39.393Z,354.37
2023-05-14T13:45:39.429Z,354.37
2023-05-14T13:46:39.416Z,371.25
2023-05-14T13:47:40.285Z,388.12
2023-05-14T13:48:39.375Z,416.25
2023-05-14T13:49:39.316Z,444.37
2023-05-14T13:50:39.357Z,472.50
2023-05-14T13:51:39.372Z,523.12
2023-05-14T13:52:39.301Z,573.75
2023-05-14T13:53:39.323Z,680.62
2023-05-14T13:54:39.344Z,956.25
2023-05-14T13:55:39.261Z,2953.12
2023-05-14T13:56:39.258Z,3346.87
2023-05-14T13:57:39.239Z,3549.37
2023-05-14T13:58:39.246Z,3273.75
2023-05-14T13:59:39.220Z,1023.75
2023-05-14T14:00:39.251Z,1164.37
2023-05-14T14:01:39.252Z,1035.00
2023-05-14T14:02:39.261Z,1271.25
2023-05-14T14:03:39.214Z,3307.50
2023-05-14T14:04:39.189Z,1338.75
2023-05-14T14:05:39.631Z,2165.62
2023-05-14T14:06:39.172Z,2553.75
2023-05-14T14:07:39.232Z,635.62
2023-05-14T14:08:39.180Z,753.75
2023-05-14T14:09:39.162Z,3751.87
2023-05-14T14:10:39.139Z,2205.00
2023-05-14T14:11:39.134Z,3341.25
2023-05-14T14:12:39.106Z,3656.25
2023-05-14T14:13:39.091Z,3594.37
2023-05-14T14:14:39.080Z,3605.62
2023-05-14T14:15:39.087Z,3560.62
2023-05-14T14:16:39.132Z,3577.50
2023-05-14T14:17:39.148Z,3566.25
2023-05-14T14:18:39.093Z,3622.50
2023-05-14T14:19:39.074Z,3673.12
2023-05-14T14:20:39.247Z,3560.62
2023-05-14T14:21:39.030Z,3538.12
2023-05-14T14:22:39.041Z,3549.37
2023-05-14T14:23:39.086Z,3538.12
2023-05-14T14:24:38.991Z,3498.75
2023-05-14T14:25:39.008Z,3465.00
2023-05-14T14:26:39.008Z,3470.62
2023-05-14T14:27:38.976Z,3487.50
2023-05-14T14:28:38.970Z,3414.37
2023-05-14T14:29:38.942Z,3470.62
2023-05-14T14:30:38.952Z,3369.37
2023-05-14T14:31:39.043Z,3403.12
2023-05-14T14:32:38.968Z,3301.87
2023-05-14T14:33:38.921Z,787.50
2023-05-14T14:34:38.877Z,3318.75
2023-05-14T14:35:38.894Z,1490.62
2023-05-14T14:36:38.914Z,1715.62
2023-05-14T14:37:38.872Z,1113.75
2023-05-14T14:38:38.851Z,1310.62
2023-05-14T14:39:38.893Z,1400.62
2023-05-14T14:40:38.850Z,2430.00
2023-05-14T14:41:38.858Z,1237.50
2023-05-14T14:42:38.823Z,1113.75
2023-05-14T14:43:38.852Z,855.00
2023-05-14T14:44:38.848Z,815.62
2023-05-14T14:45:38.838Z,894.37
2023-05-14T14:46:38.804Z,961.87
2023-05-14T14:47:38.783Z,2199.37
2023-05-14T14:48:38.765Z,2925.00
2023-05-14T14:49:38.760Z,1175.62
2023-05-14T14:50:38.761Z,2143.12
2023-05-14T14:51:38.725Z,3273.75
2023-05-14T14:52:38.720Z,3228.75
2023-05-14T14:53:38.704Z,3138.75
2023-05-14T14:54:38.779Z,3195.00
2023-05-14T14:55:38.743Z,3324.37
2023-05-14T14:56:38.704Z,3211.87
2023-05-14T14:57:38.693Z,3144.37
2023-05-14T14:58:38.676Z,2936.25
2023-05-14T14:59:38.676Z,2795.62
2023-05-14T15:00:38.635Z,2705.62
2023-05-14T15:01:38.675Z,2835.00
2023-05-14T15:02:38.693Z,2581.87
2023-05-14T15:03:38.771Z,1136.25
2023-05-14T15:04:38.625Z,984.37
2023-05-14T15:05:38.619Z,2958.75
2023-05-14T15:06:38.594Z,3026.25
2023-05-14T15:07:38.615Z,3065.62
2023-05-14T15:08:38.689Z,2773.12
2023-05-14T15:09:38.569Z,1766.25
2023-05-14T15:10:38.611Z,849.37
2023-05-14T15:11:38.553Z,753.75
2023-05-14T15:12:38.546Z,725.62
2023-05-14T15:13:38.521Z,686.25
2023-05-14T15:14:38.500Z,658.12
2023-05-14T15:15:38.564Z,652.50
2023-05-14T15:16:38.552Z,635.62
2023-05-14T15:17:38.786Z,613.12
2023-05-14T15:18:38.474Z,601.87
2023-05-14T15:19:38.473Z,596.25
2023-05-14T15:20:38.449Z,590.62
2023-05-14T15:21:38.468Z,601.87
2023-05-14T15:22:38.456Z,601.87
2023-05-14T15:23:38.412Z,601.87
2023-05-14T15:24:38.415Z,601.87
2023-05-14T15:25:38.403Z,618.75
2023-05-14T15:26:38.395Z,635.62
2023-05-14T15:27:38.434Z,658.12
2023-05-14T15:28:38.359Z,680.62
2023-05-14T15:29:38.367Z,703.12
2023-05-14T15:30:38.349Z,928.12
2023-05-14T15:31:38.358Z,2199.37
2023-05-14T15:32:38.368Z,2818.12
2023-05-14T15:33:38.330Z,2683.12
2023-05-14T15:34:38.291Z,2801.25
2023-05-14T15:35:38.358Z,2716.87
2023-05-14T15:36:38.316Z,2812.50
2023-05-14T15:37:38.310Z,2863.12
2023-05-14T15:38:38.258Z,2835.00
2023-05-14T15:39:38.261Z,2806.87
2023-05-14T15:40:38.248Z,2835.00
2023-05-14T15:41:38.244Z,2840.62
2023-05-14T15:42:38.232Z,2722.50
2023-05-14T15:43:38.262Z,2486.25
2023-05-14T15:44:39.102Z,2435.62
2023-05-14T15:45:38.203Z,2514.37
2023-05-14T15:46:38.219Z,2671.87
2023-05-14T15:47:38.279Z,2846.25
2023-05-14T15:48:38.188Z,2728.12
2023-05-14T15:49:38.158Z,2953.12
2023-05-14T15:50:38.164Z,2846.25
2023-05-14T15:51:38.158Z,2818.12
2023-05-14T15:52:38.128Z,2694.37
2023-05-14T15:53:38.129Z,2778.75
2023-05-14T15:54:38.113Z,2722.50
2023-05-14T15:55:38.119Z,2767.50
2023-05-14T15:56:38.098Z,945.00
2023-05-14T15:57:38.099Z,2711.25
2023-05-14T15:58:38.087Z,2666.25
2023-05-14T15:59:38.118Z,2244.37
2023-05-14T16:00:38.260Z,2013.75
2023-05-14T16:01:38.104Z,1248.75
2023-05-14T16:02:38.068Z,1102.50
2023-05-14T16:03:38.106Z,596.25
2023-05-14T16:04:38.069Z,613.12
2023-05-14T16:05:38.025Z,691.87
2023-05-14T16:06:38.013Z,1659.37
2023-05-14T16:07:37.999Z,1552.50
2023-05-14T16:08:38.192Z,1068.75
2023-05-14T16:09:38.051Z,911.25
2023-05-14T16:10:37.950Z,888.75
2023-05-14T16:11:37.982Z,849.37
2023-05-14T16:12:38.003Z,720.00
2023-05-14T16:13:37.956Z,714.37
2023-05-14T16:14:38.602Z,708.75
2023-05-14T16:15:37.957Z,725.62
2023-05-14T16:16:38.206Z,714.37